createdAt,value
2023-06-02T00:01:49.986Z,54.49
2023-06-02T00:04:24.645Z,54.83
2023-06-02T00:06:54.188Z,55.04
2023-06-02T00:09:23.879Z,55.12
2023-06-02T00:11:53.212Z,55.12
2023-06-02T00:14:23.222Z,55.51
2023-06-02T00:16:52.209Z,56.07
2023-06-02T00:19:24.420Z,56.22
2023-06-02T00:21:54.319Z,56.28
2023-06-02T00:24:23.088Z,56.48
2023-06-02T00:26:51.687Z,56.58
2023-06-02T00:29:21.041Z,56.85
2023-06-02T00:31:52.342Z,57.31
2023-06-02T00:34:21.581Z,57.25
2023-06-02T00:36:53.522Z,56.57
2023-06-02T00:39:24.298Z,56.18
2023-06-02T00:41:54.583Z,56.41
2023-06-02T00:44:23.997Z,56.60
2023-06-02T00:46:53.132Z,57.35
2023-06-02T00:49:22.495Z,57.86
2023-06-02T00:51:53.326Z,58.15
2023-06-02T00:54:22.705Z,59.33
2023-06-02T00:56:52.284Z,59.85
2023-06-02T00:59:23.460Z,60.60
2023-06-02T01:01:54.744Z,61.27
2023-06-02T01:04:23.550Z,61.92
2023-06-02T01:06:54.200Z,61.52
2023-06-02T01:09:24.008Z,61.75
2023-06-02T01:11:53.078Z,61.88
2023-06-02T01:14:21.770Z,61.90
2023-06-02T01:16:52.347Z,61.64
2023-06-02T01:19:22.281Z,61.17
2023-06-02T01:21:59.920Z,60.77
2023-06-02T01:24:36.802Z,60.62
2023-06-02T01:27:09.366Z,60.45
2023-06-02T01:29:38.463Z,59.98
2023-06-02T01:32:13.829Z,60.08
2023-06-02T01:34:49.255Z,60.51
2023-06-02T01:37:22.150Z,60.74
2023-06-02T01:39:52.626Z,60.47
2023-06-02T01:42:23.406Z,60.20
2023-06-02T01:44:52.638Z,60.13
2023-06-02T01:47:22.547Z,60.30
2023-06-02T01:49:51.353Z,60.64
2023-06-02T01:52:20.150Z,61.04
2023-06-02T01:54:51.762Z,60.94
2023-06-02T01:57:21.629Z,60.76
2023-06-02T01:59:50.214Z,61.02
2023-06-02T02:02:19.054Z,61.10
2023-06-02T02:04:47.807Z,60.95
2023-06-02T02:07:20.354Z,60.99
2023-06-02T02:09:50.322Z,61.04
2023-06-02T02:12:20.308Z,61.32
2023-06-02T02:14:52.347Z,61.34
2023-06-02T02:17:21.084Z,61.58
2023-06-02T02:19:51.412Z,61.23
2023-06-02T02:22:20.591Z,61.21
2023-06-02T02:24:49.351Z,61.30
2023-06-02T02:27:18.224Z,61.55
2023-06-02T02:29:47.493Z,61.51
2023-06-02T02:32:16.188Z,61.74
2023-06-02T02:34:46.464Z,62.11
2023-06-02T02:37:15.365Z,62.04
2023-06-02T02:39:44.032Z,62.01
2023-06-02T02:42:12.654Z,61.96
2023-06-02T02:44:41.450Z,62.04
2023-06-02T02:47:10.732Z,62.39
2023-06-02T02:49:39.803Z,62.31
2023-06-02T02:52:09.317Z,62.37
2023-06-02T02:54:37.916Z,62.95
2023-06-02T02:57:09.122Z,62.93
2023-06-02T02:59:38.463Z,62.69
2023-06-02T03:02:08.055Z,62.65
2023-06-02T03:04:37.246Z,62.43
2023-06-02T03:07:07.531Z,62.62
2023-06-02T03:09:36.305Z,62.59
2023-06-02T03:12:05.627Z,62.78
2023-06-02T03:14:34.514Z,62.50
2023-06-02T03:17:03.243Z,62.14
2023-06-02T03:19:32.640Z,61.88
2023-06-02T03:22:01.623Z,61.41
2023-06-02T03:24:30.634Z,61.36
2023-06-02T03:26:59.952Z,61.37
2023-06-02T03:30:32.778Z,61.23
2023-06-02T03:33:42.223Z,60.92
2023-06-02T03:36:35.821Z,60.37
2023-06-02T03:39:06.526Z,60.38
2023-06-02T03:41:36.700Z,60.85
2023-06-02T03:44:06.517Z,61.19
2023-06-02T03:46:36.352Z,61.13
2023-06-02T03:49:05.596Z,61.47
2023-06-02T03:51:34.380Z,61.33
2023-06-02T03:54:03.204Z,61.28
2023-06-02T03:56:31.851Z,61.33
2023-06-02T03:59:00.676Z,61.38
2023-06-02T04:01:29.465Z,60.97
2023-06-02T04:03:58.220Z,60.48
2023-06-02T04:06:29.151Z,59.92
2023-06-02T04:08:57.969Z,59.88
2023-06-02T04:11:26.949Z,59.84
2023-06-02T04:13:56.347Z,59.87
2023-06-02T04:16:25.016Z,59.86
2023-06-02T04:18:54.553Z,60.02
2023-06-02T04:21:23.251Z,59.86
2023-06-02T04:23:51.853Z,60.24
2023-06-02T04:26:21.444Z,60.32
2023-06-02T04:28:50.828Z,60.33
2023-06-02T04:31:27.318Z,60.30
2023-06-02T04:33:57.295Z,60.46
2023-06-02T04:36:26.532Z,59.81
2023-06-02T04:38:55.154Z,59.86
2023-06-02T04:41:23.858Z,60.00
2023-06-02T04:43:52.952Z,60.38
2023-06-02T04:46:23.673Z,59.35
2023-06-02T04:48:52.569Z,58.61
2023-06-02T04:51:26.699Z,58.04
2023-06-02T04:53:55.708Z,58.08
2023-06-02T04:56:27.229Z,57.99
2023-06-02T04:58:57.683Z,58.12
2023-06-02T05:01:33.345Z,57.91
2023-06-02T05:04:07.638Z,58.19
2023-06-02T05:06:37.300Z,58.30
2023-06-02T05:09:06.413Z,58.69
2023-06-02T05:11:36.022Z,58.72
2023-06-02T05:14:05.746Z,58.70
2023-06-02T05:16:37.066Z,59.05
2023-06-02T05:19:06.302Z,58.92
2023-06-02T05:21:35.448Z,58.59
2023-06-02T05:24:06.044Z,58.83
2023-06-02T05:26:35.775Z,58.57
2023-06-02T05:29:04.670Z,58.63
2023-06-02T05:31:38.821Z,58.44
2023-06-02T05:34:07.969Z,57.89
2023-06-02T05:36:37.737Z,58.34
2023-06-02T05:39:07.767Z,58.79
2023-06-02T05:41:37.295Z,58.65
2023-06-02T05:44:06.401Z,59.14
2023-06-02T05:46:36.112Z,59.07
2023-06-02T05:49:05.001Z,58.60
2023-06-02T05:51:34.302Z,58.78
2023-06-02T05:54:03.150Z,58.92
2023-06-02T05:56:31.963Z,58.85
2023-06-02T05:59:00.816Z,58.82
2023-06-02T06:01:29.625Z,58.65
2023-06-02T06:03:58.831Z,58.83
2023-06-02T06:06:28.372Z,59.00
2023-06-02T06:08:57.281Z,59.09
2023-06-02T06:11:26.495Z,59.34
2023-06-02T06:13:55.319Z,59.16
2023-06-02T06:16:25.601Z,59.17
2023-06-02T06:18:54.395Z,58.79
2023-06-02T06:21:24.398Z,58.34
2023-06-02T06:23:53.512Z,58.57
2023-06-02T06:26:32.049Z,58.96
2023-06-02T06:29:00.966Z,58.79
2023-06-02T06:31:29.813Z,58.53
2023-06-02T06:33:58.903Z,58.64
2023-06-02T06:36:27.610Z,58.65
2023-06-02T06:38:56.945Z,58.62
2023-06-02T06:41:30.871Z,58.15
2023-06-02T06:44:02.241Z,58.15
2023-06-02T06:46:30.956Z,57.86
2023-06-02T06:49:00.385Z,57.13
2023-06-02T06:51:29.345Z,56.59
2023-06-02T06:53:58.055Z,56.08
2023-06-02T06:56:27.541Z,55.68
2023-06-02T06:58:56.156Z,55.31
2023-06-02T07:01:24.938Z,55.80
2023-06-02T07:03:53.698Z,55.76
2023-06-02T07:06:22.499Z,55.13
2023-06-02T07:08:51.780Z,54.66
2023-06-02T07:11:20.537Z,53.83
2023-06-02T07:13:49.767Z,54.02
2023-06-02T07:16:20.527Z,53.60
2023-06-02T07:18:49.633Z,53.72
2023-06-02T07:21:18.885Z,53.75
2023-06-02T07:23:47.600Z,53.73
2023-06-02T07:26:16.480Z,53.59
2023-06-02T07:28:45.087Z,53.16
2023-06-02T07:31:14.374Z,53.31
2023-06-02T07:33:46.126Z,53.61
2023-06-02T07:36:14.905Z,53.77
2023-06-02T07:38:44.456Z,53.76
2023-06-02T07:41:13.491Z,53.86
2023-06-02T07:43:42.121Z,53.98
2023-06-02T07:46:11.119Z,53.80
2023-06-02T07:48:39.806Z,53.86
2023-06-02T07:51:09.238Z,54.03
2023-06-02T07:53:37.900Z,53.94
2023-06-02T07:56:07.950Z,53.57
2023-06-02T07:58:37.031Z,53.65
2023-06-02T08:01:08.237Z,53.65
2023-06-02T08:03:37.311Z,53.52
2023-06-02T08:06:06.522Z,53.11
2023-06-02T08:08:35.311Z,53.08
2023-06-02T08:11:04.028Z,53.30
2023-06-02T08:13:33.522Z,53.43
2023-06-02T08:16:26.558Z,53.44
2023-06-02T08:18:51.272Z,53.30
2023-06-02T08:21:20.730Z,53.38
2023-06-02T08:23:49.501Z,53.64
2023-06-02T08:26:18.596Z,53.70
2023-06-02T08:28:50.471Z,53.43
2023-06-02T08:31:21.773Z,52.93
2023-06-02T08:33:52.967Z,52.72
2023-06-02T08:36:21.985Z,52.73
2023-06-02T08:38:52.375Z,53.01
2023-06-02T08:41:21.922Z,52.95
2023-06-02T08:43:52.821Z,53.19
2023-06-02T08:46:21.661Z,53.21
2023-06-02T08:48:56.691Z,53.11
2023-06-02T08:51:25.794Z,53.64
2023-06-02T08:53:54.842Z,53.50
2023-06-02T08:56:24.440Z,53.71
2023-06-02T08:58:53.432Z,53.46
2023-06-02T09:01:22.363Z,53.69
2023-06-02T09:03:51.377Z,53.71
2023-06-02T09:06:22.134Z,53.93
2023-06-02T09:08:59.104Z,54.48
2023-06-02T09:11:29.062Z,54.93
2023-06-02T09:13:58.501Z,54.89
2023-06-02T09:16:39.442Z,54.64
2023-06-02T09:19:09.384Z,54.66
2023-06-02T09:21:38.684Z,54.69
2023-06-02T09:26:48.076Z,54.93
2023-06-02T09:29:17.315Z,54.98
2023-06-02T09:31:48.575Z,54.91
2023-06-02T09:34:19.678Z,54.61
2023-06-02T09:36:51.804Z,54.60
2023-06-02T09:39:34.865Z,54.25
2023-06-02T09:42:05.282Z,54.14
2023-06-02T09:44:35.432Z,54.42
2023-06-02T09:47:19.482Z,54.31
2023-06-02T09:49:48.776Z,54.02
2023-06-02T09:52:19.445Z,54.58
2023-06-02T09:54:50.410Z,54.63
2023-06-02T09:57:19.711Z,54.94
2023-06-02T09:59:48.761Z,54.88
2023-06-02T10:02:18.712Z,54.93
2023-06-02T10:04:48.244Z,54.81
2023-06-02T10:07:28.710Z,54.84
2023-06-02T10:10:13.872Z,55.21
2023-06-02T10:13:05.462Z,55.31
2023-06-02T10:16:00.306Z,55.80
2023-06-02T10:18:54.888Z,56.29
2023-06-02T10:21:35.877Z,56.72
2023-06-02T10:24:16.353Z,57.04
2023-06-02T10:27:02.791Z,57.20
2023-06-02T10:29:34.503Z,57.24
2023-06-02T10:32:22.897Z,57.56
2023-06-02T10:34:52.565Z,57.77
2023-06-02T10:37:22.924Z,57.80
2023-06-02T10:39:54.138Z,57.87
2023-06-02T10:42:24.822Z,58.53
2023-06-02T10:45:14.678Z,58.22
2023-06-02T10:47:43.824Z,57.85
2023-06-02T10:50:17.380Z,58.29
2023-06-02T10:53:13.312Z,58.64
2023-06-02T10:55:42.720Z,58.96
2023-06-02T10:58:13.823Z,59.64
2023-06-02T11:00:47.861Z,59.75
2023-06-02T11:03:32.150Z,59.70
2023-06-02T11:06:21.855Z,59.80
2023-06-02T11:08:53.921Z,60.22
2023-06-02T11:11:55.315Z,61.22
2023-06-02T11:14:25.788Z,61.68
2023-06-02T11:17:30.757Z,62.22
2023-06-02T11:20:00.984Z,62.59
2023-06-02T11:22:29.825Z,62.66
2023-06-02T11:24:59.597Z,63.72
2023-06-02T11:27:42.641Z,63.14
2023-06-02T11:30:14.875Z,62.37
2023-06-02T11:32:44.945Z,62.44
2023-06-02T11:35:13.819Z,62.68
2023-06-02T11:37:44.690Z,62.45
2023-06-02T11:40:14.231Z,62.42
2023-06-02T11:42:45.637Z,63.02
2023-06-02T11:45:22.905Z,63.24
2023-06-02T11:47:59.924Z,63.52
2023-06-02T11:50:29.385Z,64.35
2023-06-02T11:52:58.765Z,64.12
2023-06-02T11:55:32.652Z,64.09
2023-06-02T11:58:24.205Z,64.21
2023-06-02T12:00:54.567Z,64.82
2023-06-02T12:03:25.475Z,65.03
2023-06-02T12:05:56.335Z,64.69
2023-06-02T12:08:27.609Z,64.63
2023-06-02T12:10:59.939Z,64.70
2023-06-02T12:13:36.436Z,64.69
2023-06-02T12:16:21.375Z,64.66
2023-06-02T12:18:50.518Z,65.49
2023-06-02T12:21:27.192Z,65.36
2023-06-02T12:23:57.558Z,65.64
2023-06-02T12:26:27.545Z,65.42
2023-06-02T12:28:58.208Z,65.30
2023-06-02T12:31:27.044Z,64.87
2023-06-02T12:33:55.948Z,64.99
2023-06-02T12:36:24.683Z,65.07
2023-06-02T12:38:53.573Z,65.30
2023-06-02T12:41:22.937Z,65.78
2023-06-02T12:43:51.688Z,65.77
2023-06-02T12:46:20.675Z,65.11
2023-06-02T12:48:50.147Z,64.61
2023-06-02T12:51:19.009Z,64.25
2023-06-02T12:53:47.788Z,63.96
2023-06-02T12:56:16.956Z,63.98
2023-06-02T12:58:46.030Z,63.77
2023-06-02T13:01:16.040Z,62.88
2023-06-02T13:03:50.648Z,62.31
2023-06-02T13:06:18.908Z,61.91
2023-06-02T13:08:48.209Z,61.63
2023-06-02T13:11:17.726Z,60.97
2023-06-02T13:13:46.650Z,60.29
2023-06-02T13:16:16.066Z,59.66
2023-06-02T13:18:47.900Z,59.33
2023-06-02T13:21:17.561Z,58.55
2023-06-02T13:23:54.171Z,57.68
2023-06-02T13:26:23.351Z,56.83
2023-06-02T13:28:52.511Z,56.21
2023-06-02T13:31:21.207Z,56.12
2023-06-02T13:33:50.544Z,55.31
2023-06-02T13:36:19.788Z,55.08
2023-06-02T13:38:49.432Z,53.66
2023-06-02T13:41:18.543Z,53.74
2023-06-02T13:43:47.228Z,53.79
2023-06-02T13:46:17.357Z,53.23
2023-06-02T13:48:46.086Z,52.68
2023-06-02T13:51:14.854Z,51.65
2023-06-02T13:53:43.528Z,50.85
2023-06-02T13:56:13.649Z,49.90
2023-06-02T13:58:42.384Z,49.99
2023-06-02T14:01:11.553Z,49.22
2023-06-02T14:03:41.064Z,49.34
2023-06-02T14:06:10.699Z,49.23
2023-06-02T14:08:39.529Z,49.30
2023-06-02T14:11:09.125Z,48.51
2023-06-02T14:13:38.050Z,48.43
2023-06-02T14:16:07.962Z,48.24
2023-06-02T14:18:37.105Z,47.98
2023-06-02T14:21:06.230Z,47.52
2023-06-02T14:23:36.249Z,47.51
2023-06-02T14:26:05.543Z,47.61
2023-06-02T14:28:35.262Z,47.81
2023-06-02T14:31:05.465Z,47.76
2023-06-02T14:33:35.582Z,47.69
2023-06-02T14:36:06.951Z,46.94
2023-06-02T14:38:36.129Z,46.62
2023-06-02T14:41:05.494Z,46.15
2023-06-02T14:43:34.510Z,46.35
2023-06-02T14:46:07.187Z,46.04
2023-06-02T14:48:36.824Z,45.62
2023-06-02T14:51:06.064Z,44.71
2023-06-02T14:53:35.146Z,43.87
2023-06-02T14:56:04.600Z,43.66
2023-06-02T14:58:33.885Z,44.60
2023-06-02T15:01:03.750Z,44.50
2023-06-02T15:03:32.861Z,44.07
2023-06-02T15:06:02.505Z,44.13
2023-06-02T15:08:34.247Z,44.41
2023-06-02T15:11:03.525Z,44.39
2023-06-02T15:13:35.230Z,43.65
2023-06-02T15:16:04.551Z,43.33
2023-06-02T15:18:40.371Z,43.34
2023-06-02T15:21:17.753Z,43.32
2023-06-02T15:23:46.602Z,43.27
2023-06-02T15:26:16.369Z,42.83
2023-06-02T15:28:45.966Z,40.14
2023-06-02T15:31:15.136Z,40.03
2023-06-02T15:33:45.819Z,39.73
2023-06-02T15:36:15.549Z,38.12
2023-06-02T15:38:44.289Z,36.59
2023-06-02T15:41:13.126Z,34.95
2023-06-02T15:43:41.957Z,32.17
2023-06-02T15:46:10.940Z,31.75
2023-06-02T15:48:44.651Z,31.60
2023-06-02T15:51:13.847Z,32.08
2023-06-02T15:53:44.135Z,31.83
2023-06-02T15:56:14.819Z,32.35
2023-06-02T15:58:43.868Z,32.51
2023-06-02T16:01:13.292Z,32.52
2023-06-02T16:03:42.378Z,31.41
2023-06-02T16:06:11.692Z,31.11
2023-06-02T16:09:07.396Z,31.63
2023-06-02T16:11:36.735Z,31.39
2023-06-02T16:14:05.498Z,33.25
2023-06-02T16:16:35.109Z,35.24
2023-06-02T16:19:06.108Z,32.01
2023-06-02T16:21:35.269Z,30.85
2023-06-02T16:24:04.350Z,29.28
2023-06-02T16:26:33.246Z,28.68
2023-06-02T16:29:02.667Z,28.63
2023-06-02T16:31:31.661Z,27.88
2023-06-02T16:34:00.543Z,27.61
2023-06-02T16:36:29.936Z,27.58
2023-06-02T16:39:01.554Z,27.89
2023-06-02T16:41:30.565Z,27.74
2023-06-02T16:43:59.623Z,27.77
2023-06-02T16:46:28.557Z,27.23
2023-06-02T16:48:57.689Z,27.61
2023-06-02T16:51:26.996Z,27.21
2023-06-02T16:53:56.156Z,26.75
2023-06-02T16:56:26.586Z,26.02
2023-06-02T16:58:55.663Z,26.17
2023-06-02T17:01:24.494Z,26.37
2023-06-02T17:03:53.588Z,26.29
2023-06-02T17:06:22.642Z,26.74
2023-06-02T17:09:07.025Z,26.94
2023-06-02T17:11:37.080Z,26.81
2023-06-02T17:14:05.956Z,26.57
2023-06-02T17:16:35.950Z,27.01
2023-06-02T17:19:05.195Z,27.10
2023-06-02T17:21:34.126Z,26.96
2023-06-02T17:24:03.102Z,27.15
2023-06-02T17:26:31.879Z,27.51
2023-06-02T17:29:01.485Z,27.90
2023-06-02T17:31:30.741Z,27.69
2023-06-02T17:33:59.972Z,27.92
2023-06-02T17:36:28.703Z,28.16
2023-06-02T17:38:57.628Z,28.24
2023-06-02T17:41:26.897Z,28.42
2023-06-02T17:43:55.693Z,27.87
2023-06-02T17:46:27.095Z,28.24
2023-06-02T17:48:56.260Z,28.22
2023-06-02T17:51:28.057Z,28.41
2023-06-02T17:53:57.054Z,28.69
2023-06-02T17:56:27.451Z,29.07
2023-06-02T17:58:56.260Z,29.33
2023-06-02T18:01:25.034Z,29.78
2023-06-02T18:03:54.190Z,30.16
2023-06-02T18:06:22.991Z,30.14
2023-06-02T18:08:52.010Z,30.43
2023-06-02T18:11:21.177Z,30.64
2023-06-02T18:13:49.881Z,30.91
2023-06-02T18:16:18.562Z,30.85
2023-06-02T18:18:48.151Z,30.76
2023-06-02T18:21:17.634Z,30.90
2023-06-02T18:23:46.510Z,31.32
2023-06-02T18:26:15.641Z,31.51
2023-06-02T18:28:47.494Z,31.68
2023-06-02T18:31:16.908Z,31.91
2023-06-02T18:33:46.502Z,32.18
2023-06-02T18:36:21.634Z,32.43
2023-06-02T18:38:53.652Z,32.54
2023-06-02T18:41:22.847Z,32.59
2023-06-02T18:43:51.845Z,32.50
2023-06-02T18:46:31.485Z,32.73
2023-06-02T18:49:07.169Z,32.54
2023-06-02T18:51:36.286Z,32.53
2023-06-02T18:54:06.110Z,32.56
2023-06-02T18:56:35.029Z,32.69
2023-06-02T18:59:03.744Z,32.61
2023-06-02T19:01:32.985Z,32.14
2023-06-02T19:04:02.051Z,32.60
2023-06-02T19:06:31.159Z,32.80
2023-06-02T19:09:00.492Z,33.04
2023-06-02T19:11:29.456Z,32.96
2023-06-02T19:13:58.736Z,33.01
2023-06-02T19:16:27.919Z,33.46
2023-06-02T19:18:57.726Z,33.89
2023-06-02T19:21:29.341Z,34.03
2023-06-02T19:23:59.572Z,34.25
2023-06-02T19:26:28.556Z,34.63
2023-06-02T19:28:57.328Z,34.91
2023-06-02T19:31:26.264Z,35.28
2023-06-02T19:33:55.126Z,35.58
2023-06-02T19:36:23.940Z,35.87
2023-06-02T19:38:53.034Z,36.10
2023-06-02T19:41:21.635Z,36.49
2023-06-02T19:43:50.366Z,36.56
2023-06-02T19:46:19.683Z,37.02
2023-06-02T19:48:48.673Z,37.29
2023-06-02T19:51:17.525Z,37.27
2023-06-02T19:53:47.008Z,37.34
2023-06-02T19:56:16.569Z,37.32
2023-06-02T19:58:45.578Z,37.39
2023-06-02T20:01:14.583Z,37.57
2023-06-02T20:03:43.694Z,37.80
2023-06-02T20:06:13.272Z,38.24
2023-06-02T20:08:42.324Z,38.11
2023-06-02T20:11:11.051Z,38.24
2023-06-02T20:13:40.548Z,38.11
2023-06-02T20:16:09.798Z,38.38
2023-06-02T20:18:38.757Z,38.54
2023-06-02T20:21:08.460Z,39.04
2023-06-02T20:23:37.801Z,39.65
2023-06-02T20:26:07.307Z,39.19
2023-06-02T20:28:36.459Z,39.42
2023-06-02T20:31:08.322Z,39.59
2023-06-02T20:33:37.794Z,40.13
2023-06-02T20:36:08.547Z,40.23
2023-06-02T20:38:37.856Z,40.21
2023-06-02T20:41:06.553Z,40.50
2023-06-02T20:43:35.458Z,40.57
2023-06-02T20:46:05.347Z,40.51
2023-06-02T20:48:34.201Z,41.03
2023-06-02T20:51:03.561Z,41.07
2023-06-02T20:53:32.360Z,41.24
2023-06-02T20:56:01.220Z,41.47
2023-06-02T20:58:31.237Z,41.81
2023-06-02T21:01:00.107Z,42.00
2023-06-02T21:03:29.953Z,42.00
2023-06-02T21:05:58.959Z,41.93
2023-06-02T21:08:30.887Z,41.97
2023-06-02T21:11:01.438Z,42.32
2023-06-02T21:13:30.120Z,42.39
2023-06-02T21:15:58.837Z,42.68
2023-06-02T21:18:28.211Z,42.55
2023-06-02T21:20:57.141Z,42.78
2023-06-02T21:23:26.125Z,42.54
2023-06-02T21:25:55.027Z,42.60
2023-06-02T21:28:24.087Z,42.88
2023-06-02T21:30:53.158Z,43.22
2023-06-02T21:33:22.307Z,43.22
2023-06-02T21:35:51.506Z,43.72
2023-06-02T21:38:39.476Z,43.59
2023-06-02T21:41:08.201Z,43.80
2023-06-02T21:43:37.006Z,43.93
2023-06-02T21:46:06.399Z,43.67
2023-06-02T21:48:35.398Z,43.97
2023-06-02T21:51:05.023Z,44.13
2023-06-02T21:53:33.836Z,44.48
2023-06-02T21:56:15.100Z,44.44
2023-06-02T21:58:44.003Z,44.63
2023-06-02T22:01:13.391Z,44.65
2023-06-02T22:03:42.588Z,44.53
2023-06-02T22:06:18.150Z,44.43
2023-06-02T22:08:57.260Z,44.93
2023-06-02T22:11:26.936Z,45.45
2023-06-02T22:13:56.912Z,45.71
2023-06-02T22:16:26.107Z,45.58
2023-06-02T22:18:56.560Z,45.53
2023-06-02T22:21:41.727Z,45.34
2023-06-02T22:24:27.224Z,45.47
2023-06-02T22:26:57.505Z,45.61
2023-06-02T22:29:26.445Z,45.77
2023-06-02T22:31:55.237Z,45.68
2023-06-02T22:34:24.657Z,45.69
2023-06-02T22:36:53.940Z,45.51
2023-06-02T22:39:24.413Z,45.49
2023-06-02T22:41:54.290Z,45.89
2023-06-02T22:44:23.458Z,45.96
2023-06-02T22:46:53.693Z,46.01
2023-06-02T22:49:23.570Z,45.99
2023-06-02T22:51:53.567Z,45.73
2023-06-02T22:54:22.523Z,45.64
2023-06-02T22:56:52.189Z,45.96
2023-06-02T22:59:20.829Z,45.92
2023-06-02T23:01:50.137Z,45.99
2023-06-02T23:04:19.590Z,45.98
2023-06-02T23:06:48.362Z,45.94
2023-06-02T23:09:18.333Z,46.08
2023-06-02T23:11:47.618Z,46.40
2023-06-02T23:14:17.311Z,46.62
2023-06-02T23:16:48.046Z,47.11
2023-06-02T23:19:17.452Z,47.01
2023-06-02T23:21:46.418Z,46.79
2023-06-02T23:24:15.749Z,47.17
2023-06-02T23:26:44.850Z,47.51
2023-06-02T23:29:14.063Z,47.96
2023-06-02T23:31:42.716Z,48.38
2023-06-02T23:34:12.045Z,48.41
2023-06-02T23:36:41.671Z,48.50
2023-06-02T23:39:12.018Z,49.01
2023-06-02T23:41:41.602Z,49.47
2023-06-02T23:44:10.856Z,50.12
2023-06-02T23:46:39.658Z,50.06
2023-06-02T23:49:09.448Z,49.59
2023-06-02T23:51:38.145Z,49.75
2023-06-02T23:54:07.790Z,49.85
2023-06-02T23:56:37.113Z,50.13
2023-06-02T23:59:06.373Z,49.76
